createdAt,value
2019-02-18T00:00:38.699Z,28.47
2019-02-18T00:03:07.959Z,29.63
2019-02-18T00:05:36.247Z,44.43
2019-02-18T00:08:04.503Z,36.93
2019-02-18T00:10:32.796Z,39.77
2019-02-18T00:13:01.094Z,37.90
2019-02-18T00:15:29.449Z,39.20
2019-02-18T00:17:57.716Z,38.13
2019-02-18T00:20:26.007Z,39.13
2019-02-18T00:22:54.267Z,39.30
2019-02-18T00:25:22.542Z,48.30
2019-02-18T00:27:50.834Z,52.13
2019-02-18T00:30:19.163Z,52.87
2019-02-18T00:32:47.417Z,56.50
2019-02-18T00:35:15.684Z,52.13
2019-02-18T00:37:43.969Z,54.63
2019-02-18T00:40:12.225Z,54.10
2019-02-18T00:42:40.513Z,57.03
2019-02-18T00:45:13.349Z,55.57
2019-02-18T00:47:41.646Z,52.17
2019-02-18T00:50:10.538Z,51.30
2019-02-18T00:52:38.829Z,50.60
2019-02-18T00:55:08.655Z,49.37
2019-02-18T00:57:36.925Z,47.70
2019-02-18T01:00:08.955Z,49.50
2019-02-18T01:02:37.306Z,49.40
2019-02-18T01:05:06.500Z,49.03
2019-02-18T01:07:35.342Z,48.67
2019-02-18T01:10:04.339Z,49.50
2019-02-18T01:12:32.604Z,50.13
2019-02-18T01:15:00.873Z,48.23
2019-02-18T01:17:29.171Z,49.87
2019-02-18T01:19:57.435Z,44.83
2019-02-18T01:22:25.716Z,44.97
2019-02-18T01:24:53.985Z,44.80
2019-02-18T01:27:22.276Z,46.30
2019-02-18T01:29:50.569Z,44.30
2019-02-18T01:32:18.845Z,42.50
2019-02-18T01:34:47.163Z,42.50
2019-02-18T01:37:15.418Z,42.27
2019-02-18T01:39:43.677Z,39.27
2019-02-18T01:42:11.955Z,41.20
2019-02-18T01:44:40.256Z,41.07
2019-02-18T01:47:08.525Z,40.00
2019-02-18T01:49:36.795Z,41.27
2019-02-18T01:52:05.082Z,38.77
2019-02-18T01:54:33.345Z,38.73
2019-02-18T01:57:01.630Z,37.33
2019-02-18T01:59:29.904Z,36.53
2019-02-18T02:01:58.197Z,36.03
2019-02-18T02:04:26.496Z,35.63
2019-02-18T02:06:54.870Z,33.17
2019-02-18T02:09:23.130Z,32.67
2019-02-18T02:11:51.420Z,32.77
2019-02-18T02:14:19.682Z,31.37
2019-02-18T02:16:47.979Z,32.57
2019-02-18T02:19:16.278Z,32.53
2019-02-18T02:21:44.555Z,30.30
2019-02-18T02:24:12.839Z,33.43
2019-02-18T02:26:41.137Z,32.77
2019-02-18T02:29:09.402Z,31.87
2019-02-18T02:31:37.699Z,31.97
2019-02-18T02:34:06.010Z,30.57
2019-02-18T02:36:34.273Z,30.73
2019-02-18T02:39:02.583Z,28.67
2019-02-18T02:41:30.844Z,27.47
2019-02-18T02:43:59.105Z,30.57
2019-02-18T02:46:27.418Z,29.37
2019-02-18T02:48:55.680Z,31.20
2019-02-18T02:51:23.938Z,31.33
2019-02-18T02:53:52.222Z,32.37
2019-02-18T02:56:20.506Z,31.60
2019-02-18T02:58:48.790Z,32.63
2019-02-18T03:01:17.071Z,33.33
2019-02-18T03:03:45.338Z,31.20
2019-02-18T03:06:13.626Z,30.33
2019-02-18T03:08:41.902Z,28.33
2019-02-18T03:11:10.235Z,30.60
2019-02-18T03:13:38.500Z,29.33
2019-02-18T03:16:07.134Z,29.20
2019-02-18T03:18:35.441Z,28.63
2019-02-18T03:21:03.727Z,28.70
2019-02-18T03:23:32.026Z,30.43
2019-02-18T03:26:00.296Z,27.57
2019-02-18T03:31:30.226Z,29.27
2019-02-18T03:34:04.443Z,26.80
2019-02-18T03:36:32.715Z,28.77
2019-02-18T03:39:00.984Z,28.07
2019-02-18T03:41:29.392Z,27.47
2019-02-18T03:43:57.656Z,27.53
2019-02-18T03:46:25.916Z,30.33
2019-02-18T03:48:54.216Z,27.07
2019-02-18T03:51:22.468Z,28.10
2019-02-18T03:53:50.771Z,27.37
2019-02-18T03:56:19.052Z,27.40
2019-02-18T03:58:47.315Z,28.37
2019-02-18T04:01:15.623Z,26.63
2019-02-18T04:03:43.885Z,25.57
2019-02-18T04:06:12.189Z,28.13
2019-02-18T04:08:43.215Z,24.20
2019-02-18T04:11:10.538Z,26.33
2019-02-18T04:13:38.795Z,26.40
2019-02-18T04:16:07.107Z,25.67
2019-02-18T04:18:35.404Z,26.13
2019-02-18T04:21:03.738Z,25.47
2019-02-18T04:23:32.013Z,29.13
2019-02-18T04:26:00.285Z,33.07
2019-02-18T04:28:28.584Z,28.10
2019-02-18T04:30:56.893Z,26.10
2019-02-18T04:33:25.131Z,26.37
2019-02-18T04:35:53.437Z,25.90
2019-02-18T04:40:59.022Z,27.30
2019-02-18T04:43:27.322Z,24.83
2019-02-18T04:45:55.582Z,27.37
2019-02-18T04:48:23.952Z,24.40
2019-02-18T04:50:52.180Z,25.60
2019-02-18T04:53:20.441Z,24.67
2019-02-18T04:55:48.726Z,25.40
2019-02-18T04:58:16.999Z,25.47
2019-02-18T05:00:45.277Z,24.00
2019-02-18T05:03:13.563Z,25.20
2019-02-18T05:05:41.825Z,26.13
2019-02-18T05:08:10.093Z,23.80
2019-02-18T05:10:38.374Z,26.27
2019-02-18T05:13:06.678Z,25.70
2019-02-18T05:15:34.963Z,24.70
2019-02-18T05:18:03.247Z,25.27
2019-02-18T05:20:31.532Z,25.00
2019-02-18T05:22:59.794Z,25.43
2019-02-18T05:25:28.069Z,24.20
2019-02-18T05:27:56.335Z,24.27
2019-02-18T05:30:24.642Z,24.87
2019-02-18T05:32:52.903Z,27.37
2019-02-18T05:35:21.201Z,25.30
2019-02-18T05:37:49.459Z,24.87
2019-02-18T05:40:17.781Z,24.43
2019-02-18T05:42:46.111Z,26.90
2019-02-18T05:45:14.380Z,26.87
2019-02-18T05:47:42.671Z,24.00
2019-02-18T05:50:10.959Z,24.43
2019-02-18T05:52:39.219Z,24.87
2019-02-18T05:55:07.780Z,23.60
2019-02-18T05:57:36.046Z,24.93
2019-02-18T06:00:10.078Z,25.50
2019-02-18T06:02:38.371Z,23.53
2019-02-18T06:05:07.511Z,24.57
2019-02-18T06:07:35.811Z,23.37
2019-02-18T06:10:06.527Z,24.13
2019-02-18T06:12:34.983Z,23.70
2019-02-18T06:15:03.314Z,25.50
2019-02-18T06:17:31.686Z,24.80
2019-02-18T06:19:59.951Z,23.97
2019-02-18T06:22:28.250Z,26.23
2019-02-18T06:24:56.542Z,24.57
2019-02-18T06:27:24.809Z,25.07
2019-02-18T06:29:53.086Z,21.63
2019-02-18T06:32:21.375Z,24.50
2019-02-18T06:34:49.637Z,22.80
2019-02-18T06:37:17.918Z,24.37
2019-02-18T06:39:46.252Z,23.33
2019-02-18T06:42:14.515Z,22.33
2019-02-18T06:44:44.417Z,22.33
2019-02-18T06:47:12.779Z,22.67
2019-02-18T06:49:41.051Z,22.20
2019-02-18T06:52:09.353Z,23.53
2019-02-18T06:54:37.609Z,23.07
2019-02-18T06:57:13.291Z,23.70
2019-02-18T06:59:43.232Z,23.93
2019-02-18T07:02:13.134Z,27.47
2019-02-18T07:04:43.030Z,25.27
2019-02-18T07:07:15.700Z,23.87
2019-02-18T07:09:51.924Z,24.07
2019-02-18T07:12:27.842Z,23.33
2019-02-18T07:14:56.101Z,23.63
2019-02-18T07:17:24.381Z,25.83
2019-02-18T07:19:52.686Z,25.30
2019-02-18T07:22:20.948Z,23.00
2019-02-18T07:24:49.213Z,22.57
2019-02-18T07:27:17.535Z,24.13
2019-02-18T07:29:45.789Z,22.97
2019-02-18T07:32:14.053Z,25.10
2019-02-18T07:34:42.339Z,22.87
2019-02-18T07:37:10.591Z,23.93
2019-02-18T07:39:38.883Z,24.63
2019-02-18T07:42:07.155Z,22.17
2019-02-18T07:44:35.414Z,22.47
2019-02-18T07:47:03.703Z,23.70
2019-02-18T07:49:31.974Z,23.60
2019-02-18T07:52:00.241Z,25.53
2019-02-18T07:54:28.517Z,24.00
2019-02-18T07:56:56.802Z,25.13
2019-02-18T07:59:25.137Z,27.83
2019-02-18T08:01:53.393Z,28.53
2019-02-18T08:04:21.644Z,26.20
2019-02-18T08:06:49.975Z,27.03
2019-02-18T08:09:18.241Z,26.93
2019-02-18T08:11:46.506Z,28.00
2019-02-18T08:14:14.809Z,28.33
2019-02-18T08:16:43.068Z,29.40
2019-02-18T08:19:11.352Z,30.12
2019-02-18T08:21:39.650Z,30.30
2019-02-18T08:24:07.909Z,31.27
2019-02-18T08:26:36.165Z,33.00
2019-02-18T08:29:04.457Z,34.40
2019-02-18T08:31:32.718Z,33.23
2019-02-18T08:34:01.013Z,36.27
2019-02-18T08:36:29.301Z,34.90
2019-02-18T08:38:57.572Z,34.87
2019-02-18T08:41:25.840Z,34.23
2019-02-18T08:43:54.166Z,36.07
2019-02-18T08:46:22.424Z,36.20
2019-02-18T08:48:50.676Z,34.10
2019-02-18T08:51:18.946Z,36.80
2019-02-18T08:53:47.986Z,38.00
2019-02-18T08:56:16.370Z,34.87
2019-02-18T08:58:44.663Z,37.00
2019-02-18T09:01:12.925Z,36.80
2019-02-18T09:03:41.200Z,36.45
2019-02-18T09:06:09.481Z,38.30
2019-02-18T09:08:37.774Z,39.13
2019-02-18T09:11:06.071Z,39.60
2019-02-18T09:13:34.335Z,37.93
2019-02-18T09:16:02.640Z,38.13
2019-02-18T09:18:30.899Z,34.67
2019-02-18T09:20:59.226Z,38.03
2019-02-18T09:23:32.101Z,36.35
2019-02-18T09:26:00.438Z,33.30
2019-02-18T09:28:28.740Z,33.23
2019-02-18T09:30:57.350Z,35.00
2019-02-18T09:33:25.630Z,34.53
2019-02-18T09:40:08.098Z,37.25
2019-02-18T09:42:36.374Z,35.70
2019-02-18T09:45:06.952Z,36.68
2019-02-18T09:47:35.207Z,33.20
2019-02-18T09:50:05.033Z,33.30
2019-02-18T09:52:33.287Z,33.28
2019-02-18T09:55:01.550Z,31.68
2019-02-18T09:57:29.848Z,30.60
2019-02-18T09:59:58.139Z,35.03
2019-02-18T10:02:26.388Z,31.97
2019-02-18T10:04:54.659Z,32.65
2019-02-18T10:07:22.951Z,33.05
2019-02-18T10:09:52.349Z,33.10
2019-02-18T10:12:20.647Z,35.28
2019-02-18T10:14:48.902Z,35.13
2019-02-18T10:17:17.197Z,37.30
2019-02-18T10:19:45.460Z,41.70
2019-02-18T10:22:13.790Z,38.73
2019-02-18T10:24:50.511Z,40.08
2019-02-18T10:27:12.078Z,36.70
2019-02-18T10:29:40.344Z,35.83
2019-02-18T10:32:08.647Z,35.08
2019-02-18T10:34:36.905Z,36.77
2019-02-18T10:37:05.201Z,36.42
2019-02-18T10:39:33.494Z,35.03
2019-02-18T10:42:01.745Z,33.20
2019-02-18T10:44:30.035Z,33.53
2019-02-18T10:46:58.322Z,36.25
2019-02-18T10:49:26.585Z,33.80
2019-02-18T10:51:54.874Z,36.30
2019-02-18T10:54:23.131Z,35.83
2019-02-18T10:56:51.418Z,39.50
2019-02-18T10:59:19.667Z,37.73
2019-02-18T11:01:47.957Z,37.28
2019-02-18T11:04:16.223Z,36.90
2019-02-18T11:06:44.895Z,37.63
2019-02-18T11:09:13.238Z,40.48
2019-02-18T11:11:41.534Z,36.50
2019-02-18T11:14:09.786Z,38.80
2019-02-18T11:16:38.360Z,40.50
2019-02-18T11:19:06.630Z,37.40
2019-02-18T11:21:34.923Z,36.48
2019-02-18T11:24:03.189Z,36.42
2019-02-18T11:26:31.481Z,37.58
2019-02-18T11:28:59.748Z,40.98
2019-02-18T11:31:28.321Z,40.00
2019-02-18T11:33:56.618Z,50.88
2019-02-18T11:36:24.890Z,41.73
2019-02-18T11:38:53.154Z,40.70
2019-02-18T11:41:27.472Z,42.40
2019-02-18T11:43:51.446Z,47.85
2019-02-18T11:46:20.037Z,47.88
2019-02-18T11:48:48.306Z,49.45
2019-02-18T11:51:16.580Z,52.17
2019-02-18T11:53:44.873Z,46.98
2019-02-18T11:56:13.206Z,47.53
2019-02-18T11:58:41.499Z,45.25
2019-02-18T12:01:09.844Z,42.15
2019-02-18T12:03:38.140Z,40.78
2019-02-18T12:06:06.443Z,44.90
2019-02-18T12:08:34.721Z,46.02
2019-02-18T12:11:02.992Z,46.40
2019-02-18T12:13:31.288Z,43.92
2019-02-18T12:15:59.564Z,46.23
2019-02-18T12:18:28.240Z,41.28
2019-02-18T12:20:56.547Z,40.20
2019-02-18T12:23:24.812Z,36.35
2019-02-18T12:25:53.125Z,39.40
2019-02-18T12:28:21.407Z,36.05
2019-02-18T12:30:49.746Z,23.40
2019-02-18T12:33:18.034Z,22.00
2019-02-18T12:35:46.458Z,22.75
2019-02-18T12:38:17.170Z,21.25
2019-02-18T12:40:44.747Z,21.62
2019-02-18T12:43:13.013Z,20.25
2019-02-18T12:45:41.304Z,20.65
2019-02-18T12:48:09.583Z,20.52
2019-02-18T12:50:38.149Z,20.43
2019-02-18T12:53:06.550Z,21.82
2019-02-18T12:55:35.036Z,20.08
2019-02-18T12:58:03.586Z,21.90
2019-02-18T13:00:32.017Z,22.20
2019-02-18T13:03:00.443Z,21.12
2019-02-18T13:05:28.722Z,21.68
2019-02-18T13:07:56.995Z,21.12
2019-02-18T13:10:34.675Z,20.80
2019-02-18T13:12:55.480Z,20.27
2019-02-18T13:15:23.737Z,21.40
2019-02-18T13:17:52.032Z,22.13
2019-02-18T13:20:20.325Z,22.05
2019-02-18T13:22:48.591Z,21.25
2019-02-18T13:25:16.889Z,22.70
2019-02-18T13:27:45.435Z,21.97
2019-02-18T13:30:16.115Z,21.93
2019-02-18T13:32:44.370Z,21.48
2019-02-18T13:35:12.633Z,21.50
2019-02-18T13:37:40.959Z,21.52
2019-02-18T13:40:09.217Z,20.80
2019-02-18T13:42:37.587Z,21.52
2019-02-18T13:45:07.894Z,22.30
2019-02-18T13:47:36.196Z,22.35
2019-02-18T13:50:09.894Z,24.60
2019-02-18T13:52:38.196Z,21.57
2019-02-18T13:55:08.709Z,22.75
2019-02-18T13:57:37.000Z,22.42
2019-02-18T14:00:08.518Z,22.65
2019-02-18T14:02:36.824Z,21.93
2019-02-18T14:05:06.722Z,23.75
2019-02-18T14:07:36.287Z,23.38
2019-02-18T14:10:06.024Z,23.12
2019-02-18T14:12:34.660Z,23.25
2019-02-18T14:15:02.957Z,21.85
2019-02-18T14:17:31.256Z,20.92
2019-02-18T14:19:59.553Z,21.68
2019-02-18T14:22:27.853Z,22.10
2019-02-18T14:24:56.120Z,23.02
2019-02-18T14:27:24.418Z,21.23
2019-02-18T14:29:52.853Z,21.62
2019-02-18T14:32:21.134Z,20.50
2019-02-18T14:34:49.406Z,22.30
2019-02-18T14:37:17.685Z,21.52
2019-02-18T14:39:46.017Z,22.52
2019-02-18T14:42:14.319Z,21.10
2019-02-18T14:44:43.089Z,22.30
2019-02-18T14:47:11.464Z,22.58
2019-02-18T14:49:39.798Z,23.67
2019-02-18T14:52:08.061Z,24.02
2019-02-18T14:54:36.325Z,22.90
2019-02-18T14:57:04.629Z,21.75
2019-02-18T14:59:32.911Z,23.60
2019-02-18T15:02:01.500Z,23.02
2019-02-18T15:04:29.774Z,22.05
2019-02-18T15:06:58.042Z,22.82
2019-02-18T15:09:26.352Z,22.50
2019-02-18T15:11:54.662Z,22.48
2019-02-18T15:14:22.931Z,21.55
2019-02-18T15:16:51.573Z,21.42
2019-02-18T15:19:19.869Z,19.92
2019-02-18T15:21:48.161Z,20.65
2019-02-18T15:24:16.418Z,21.45
2019-02-18T15:26:44.785Z,19.87
2019-02-18T15:29:13.047Z,21.25
2019-02-18T15:31:41.349Z,20.17
2019-02-18T15:34:09.779Z,20.00
2019-02-18T15:36:38.044Z,20.17
2019-02-18T15:39:06.333Z,20.23
2019-02-18T15:41:34.578Z,20.35
2019-02-18T15:44:02.871Z,20.15
2019-02-18T15:46:31.136Z,20.37
2019-02-18T15:48:59.796Z,20.10
2019-02-18T15:51:28.060Z,20.90
2019-02-18T15:53:56.338Z,21.33
2019-02-18T15:56:24.593Z,22.00
2019-02-18T15:58:52.888Z,21.60
2019-02-18T16:01:21.209Z,19.52
2019-02-18T16:03:49.504Z,20.45
2019-02-18T16:06:17.981Z,20.50
2019-02-18T16:08:46.238Z,18.67
2019-02-18T16:11:14.534Z,20.37
2019-02-18T16:13:42.809Z,20.88
2019-02-18T16:16:11.069Z,20.30
2019-02-18T16:18:39.366Z,19.65
2019-02-18T16:21:07.652Z,20.23
2019-02-18T16:23:35.946Z,24.92
2019-02-18T16:26:04.212Z,21.37
2019-02-18T16:28:32.501Z,20.55
2019-02-18T16:31:00.863Z,19.75
2019-02-18T16:33:29.135Z,20.68
2019-02-18T16:35:57.465Z,19.30
2019-02-18T16:38:25.739Z,18.42
2019-02-18T16:40:54.036Z,20.57
2019-02-18T16:43:22.648Z,20.40
2019-02-18T16:45:50.943Z,26.42
2019-02-18T16:48:19.482Z,20.45
2019-02-18T16:50:47.784Z,18.95
2019-02-18T16:53:16.458Z,18.42
2019-02-18T16:55:44.738Z,18.62
2019-02-18T16:58:12.998Z,18.03
2019-02-18T17:00:41.473Z,15.90
2019-02-18T17:03:09.721Z,16.50
2019-02-18T17:05:38.013Z,18.60
2019-02-18T17:08:06.270Z,18.03
2019-02-18T17:10:34.559Z,19.05
2019-02-18T17:13:08.125Z,20.37
2019-02-18T17:15:32.853Z,17.25
2019-02-18T17:18:01.174Z,19.75
2019-02-18T17:20:29.436Z,17.40
2019-02-18T17:22:57.695Z,17.70
2019-02-18T17:25:27.045Z,18.37
2019-02-18T17:27:55.349Z,19.90
2019-02-18T17:30:23.608Z,19.80
2019-02-18T17:32:51.907Z,20.43
2019-02-18T17:35:20.327Z,19.37
2019-02-18T17:37:48.587Z,19.95
2019-02-18T17:40:16.853Z,22.20
2019-02-18T17:42:45.470Z,22.07
2019-02-18T17:45:17.805Z,22.37
2019-02-18T17:47:46.066Z,19.23
2019-02-18T17:50:16.398Z,18.70
2019-02-18T17:52:44.854Z,19.13
2019-02-18T17:55:15.080Z,18.63
2019-02-18T17:57:43.524Z,18.30
2019-02-18T18:00:17.775Z,19.70
2019-02-18T18:02:46.050Z,21.00
2019-02-18T18:05:14.396Z,19.27
2019-02-18T18:07:42.711Z,19.92
2019-02-18T18:10:12.410Z,25.87
2019-02-18T18:12:40.710Z,19.83
2019-02-18T18:15:13.950Z,18.90
2019-02-18T18:17:42.198Z,19.47
2019-02-18T18:20:14.196Z,19.07
2019-02-18T18:22:42.458Z,21.63
2019-02-18T18:25:12.409Z,20.97
2019-02-18T18:27:40.686Z,19.37
2019-02-18T18:30:15.166Z,20.17
2019-02-18T18:32:45.242Z,19.13
2019-02-18T18:35:14.018Z,20.73
2019-02-18T18:37:42.581Z,19.20
2019-02-18T18:40:14.576Z,19.87
2019-02-18T18:42:42.833Z,21.17
2019-02-18T18:45:15.533Z,19.73
2019-02-18T18:47:44.024Z,18.70
2019-02-18T18:50:14.747Z,20.73
2019-02-18T18:52:43.719Z,19.30
2019-02-18T18:55:12.138Z,19.30
2019-02-18T18:57:40.911Z,18.37
2019-02-18T19:00:15.513Z,18.90
2019-02-18T19:02:43.994Z,19.20
2019-02-18T19:05:12.642Z,19.77
2019-02-18T19:07:41.265Z,18.80
2019-02-18T19:10:10.102Z,19.93
2019-02-18T19:12:38.516Z,23.50
2019-02-18T19:15:12.514Z,20.77
2019-02-18T19:17:40.762Z,23.27
2019-02-18T19:20:11.604Z,22.03
2019-02-18T19:22:40.057Z,23.63
2019-02-18T19:25:09.954Z,20.70
2019-02-18T19:27:38.241Z,20.77
2019-02-18T19:30:09.896Z,20.37
2019-02-18T19:32:38.178Z,20.63
2019-02-18T19:35:08.145Z,20.30
2019-02-18T19:37:36.420Z,20.17
2019-02-18T19:40:41.146Z,21.07
2019-02-18T19:43:09.412Z,21.10
2019-02-18T19:45:37.709Z,21.03
2019-02-18T19:48:05.976Z,20.87
2019-02-18T19:50:34.232Z,22.20
2019-02-18T19:53:02.557Z,24.27
2019-02-18T19:55:30.805Z,28.00
2019-02-18T19:57:59.333Z,20.77
2019-02-18T20:00:27.634Z,23.93
2019-02-18T20:02:55.897Z,23.87
2019-02-18T20:05:24.203Z,21.50
2019-02-18T20:07:52.480Z,23.77
2019-02-18T20:10:20.737Z,26.60
2019-02-18T20:12:49.034Z,20.53
2019-02-18T20:15:17.346Z,19.87
2019-02-18T20:17:45.618Z,21.47
2019-02-18T20:20:16.292Z,22.90
2019-02-18T20:22:44.582Z,25.63
2019-02-18T20:25:12.907Z,28.37
2019-02-18T20:27:41.197Z,29.20
2019-02-18T20:30:12.558Z,41.27
2019-02-18T20:32:40.840Z,34.00
2019-02-18T20:35:10.382Z,30.87
2019-02-18T20:37:39.012Z,33.80
2019-02-18T20:40:08.728Z,28.50
2019-02-18T20:42:37.014Z,39.20
2019-02-18T20:45:08.596Z,39.93
2019-02-18T20:47:37.229Z,48.90
2019-02-18T20:50:08.139Z,43.50
2019-02-18T20:52:36.861Z,51.43
2019-02-18T20:55:07.554Z,52.20
2019-02-18T20:57:36.499Z,59.00
2019-02-18T21:00:08.260Z,61.63
2019-02-18T21:02:36.813Z,49.13
2019-02-18T21:05:05.832Z,51.90
2019-02-18T21:07:34.310Z,56.13
2019-02-18T21:10:02.627Z,36.73
2019-02-18T21:12:31.701Z,55.03
2019-02-18T21:15:00.292Z,56.13
2019-02-18T21:17:28.578Z,55.73
2019-02-18T21:19:56.891Z,55.90
2019-02-18T21:22:25.162Z,56.67
2019-02-18T21:24:53.460Z,54.33
2019-02-18T21:27:22.115Z,53.47
2019-02-18T21:29:50.382Z,57.97
2019-02-18T21:32:18.683Z,50.07
2019-02-18T21:34:46.954Z,43.70
2019-02-18T21:37:15.259Z,40.83
2019-02-18T21:39:43.535Z,30.30
2019-02-18T21:42:11.884Z,34.40
2019-02-18T21:44:40.235Z,34.93
2019-02-18T21:47:08.561Z,33.97
2019-02-18T21:49:36.805Z,34.13
2019-02-18T21:52:05.107Z,30.43
2019-02-18T21:54:33.405Z,33.93
2019-02-18T21:57:01.668Z,31.97
2019-02-18T21:59:30.354Z,26.80
2019-02-18T22:01:58.623Z,24.23
2019-02-18T22:04:26.882Z,30.97
2019-02-18T22:06:55.153Z,32.40
2019-02-18T22:09:23.447Z,37.40
2019-02-18T22:11:51.749Z,32.60
2019-02-18T22:14:20.048Z,35.47
2019-02-18T22:16:48.587Z,26.17
2019-02-18T22:19:16.864Z,26.87
2019-02-18T22:21:45.138Z,39.63
2019-02-18T22:24:13.412Z,30.70
2019-02-18T22:26:41.707Z,34.97
2019-02-18T22:29:09.991Z,44.03
2019-02-18T22:31:38.257Z,34.80
2019-02-18T22:34:07.013Z,30.83
2019-02-18T22:36:35.266Z,31.27
2019-02-18T22:39:04.768Z,43.98
2019-02-18T22:41:33.062Z,37.87
2019-02-18T22:44:01.326Z,38.17
2019-02-18T22:46:29.639Z,39.57
2019-02-18T22:48:57.922Z,39.27
2019-02-18T22:51:26.511Z,34.77
2019-02-18T22:53:54.775Z,34.53
2019-02-18T22:56:23.102Z,31.20
2019-02-18T22:58:51.393Z,33.67
2019-02-18T23:01:20.965Z,38.33
2019-02-18T23:03:49.331Z,37.07
2019-02-18T23:06:17.642Z,37.07
2019-02-18T23:08:45.900Z,32.30
2019-02-18T23:11:14.201Z,30.80
2019-02-18T23:13:42.474Z,32.83
2019-02-18T23:16:10.757Z,31.90
2019-02-18T23:18:39.066Z,35.17
2019-02-18T23:21:07.331Z,36.40
2019-02-18T23:23:35.624Z,34.50
2019-02-18T23:26:03.912Z,35.47
2019-02-18T23:28:32.169Z,37.00
2019-02-18T23:31:00.469Z,34.93
2019-02-18T23:33:28.766Z,38.10
2019-02-18T23:35:57.018Z,36.93
2019-02-18T23:38:25.309Z,34.20
2019-02-18T23:40:55.347Z,34.00
2019-02-18T23:43:23.747Z,30.30
2019-02-18T23:45:52.035Z,31.30
2019-02-18T23:48:20.288Z,34.27
2019-02-18T23:50:48.593Z,34.47
2019-02-18T23:53:16.840Z,47.50
2019-02-18T23:55:45.114Z,52.67
2019-02-18T23:58:13.390Z,54.93
